sensor_id;sensor_type;location;lat;lon;timestamp;P1;durP1;ratioP1;P2;durP2;ratioP2
53010;SDS011;42803;55.762;38.084;2023-02-28T00:01:43;9.55;;;3.97;;
53010;SDS011;42803;55.762;38.084;2023-02-28T00:04:13;7.82;;;4.10;;
53010;SDS011;42803;55.762;38.084;2023-02-28T00:06:43;8.07;;;4.43;;
53010;SDS011;42803;55.762;38.084;2023-02-28T00:09:12;8.10;;;3.53;;
53010;SDS011;42803;55.762;38.084;2023-02-28T00:11:41;11.20;;;4.00;;
53010;SDS011;42803;55.762;38.084;2023-02-28T00:14:10;12.07;;;4.63;;
53010;SDS011;42803;55.762;38.084;2023-02-28T00:16:39;9.63;;;3.53;;
53010;SDS011;42803;55.762;38.084;2023-02-28T00:19:08;9.02;;;4.50;;
53010;SDS011;42803;55.762;38.084;2023-02-28T00:21:38;6.75;;;4.22;;
53010;SDS011;42803;55.762;38.084;2023-02-28T00:24:10;7.38;;;3.05;;
53010;SDS011;42803;55.762;38.084;2023-02-28T00:26:39;8.75;;;3.83;;
53010;SDS011;42803;55.762;38.084;2023-02-28T00:29:08;7.75;;;3.30;;
53010;SDS011;42803;55.762;38.084;2023-02-28T00:31:38;11.77;;;4.00;;
53010;SDS011;42803;55.762;38.084;2023-02-28T00:34:07;11.80;;;3.83;;
53010;SDS011;42803;55.762;38.084;2023-02-28T00:36:36;8.82;;;3.88;;
53010;SDS011;42803;55.762;38.084;2023-02-28T00:39:06;9.35;;;4.25;;
53010;SDS011;42803;55.762;38.084;2023-02-28T00:41:36;9.23;;;3.63;;
53010;SDS011;42803;55.762;38.084;2023-02-28T00:44:07;8.38;;;4.00;;
53010;SDS011;42803;55.762;38.084;2023-02-28T00:46:36;10.50;;;4.28;;
53010;SDS011;42803;55.762;38.084;2023-02-28T00:49:05;9.45;;;3.60;;
53010;SDS011;42803;55.762;38.084;2023-02-28T00:51:35;9.93;;;3.72;;
53010;SDS011;42803;55.762;38.084;2023-02-28T00:54:04;12.52;;;3.83;;
53010;SDS011;42803;55.762;38.084;2023-02-28T00:56:35;13.57;;;4.80;;
53010;SDS011;42803;55.762;38.084;2023-02-28T00:59:04;6.35;;;4.00;;
53010;SDS011;42803;55.762;38.084;2023-02-28T01:01:33;9.70;;;4.45;;
53010;SDS011;42803;55.762;38.084;2023-02-28T01:04:02;8.60;;;4.10;;
53010;SDS011;42803;55.762;38.084;2023-02-28T01:06:32;8.07;;;4.32;;
53010;SDS011;42803;55.762;38.084;2023-02-28T01:09:02;5.90;;;3.40;;
53010;SDS011;42803;55.762;38.084;2023-02-28T01:11:32;10.93;;;4.63;;
53010;SDS011;42803;55.762;38.084;2023-02-28T01:14:03;7.95;;;3.08;;
53010;SDS011;42803;55.762;38.084;2023-02-28T01:16:32;9.18;;;3.53;;
53010;SDS011;42803;55.762;38.084;2023-02-28T01:19:02;7.60;;;3.38;;
53010;SDS011;42803;55.762;38.084;2023-02-28T01:21:31;9.52;;;3.70;;
53010;SDS011;42803;55.762;38.084;2023-02-28T01:24:02;6.40;;;3.10;;
53010;SDS011;42803;55.762;38.084;2023-02-28T01:26:32;9.88;;;4.05;;
53010;SDS011;42803;55.762;38.084;2023-02-28T01:29:03;6.25;;;3.17;;
53010;SDS011;42803;55.762;38.084;2023-02-28T01:31:32;7.68;;;3.47;;
53010;SDS011;42803;55.762;38.084;2023-02-28T01:34:01;6.28;;;4.15;;
53010;SDS011;42803;55.762;38.084;2023-02-28T01:36:31;9.50;;;4.45;;
53010;SDS011;42803;55.762;38.084;2023-02-28T01:39:00;9.07;;;4.50;;
53010;SDS011;42803;55.762;38.084;2023-02-28T01:41:30;8.20;;;4.22;;
53010;SDS011;42803;55.762;38.084;2023-02-28T01:44:03;11.93;;;4.10;;
53010;SDS011;42803;55.762;38.084;2023-02-28T01:46:34;10.18;;;4.28;;
53010;SDS011;42803;55.762;38.084;2023-02-28T01:49:06;10.32;;;5.18;;
53010;SDS011;42803;55.762;38.084;2023-02-28T01:51:39;13.30;;;5.70;;
53010;SDS011;42803;55.762;38.084;2023-02-28T01:54:14;11.23;;;5.28;;
53010;SDS011;42803;55.762;38.084;2023-02-28T01:56:47;12.10;;;5.32;;
53010;SDS011;42803;55.762;38.084;2023-02-28T01:59:23;11.02;;;4.93;;
53010;SDS011;42803;55.762;38.084;2023-02-28T02:01:58;8.00;;;3.97;;
53010;SDS011;42803;55.762;38.084;2023-02-28T02:04:31;9.88;;;4.18;;
53010;SDS011;42803;55.762;38.084;2023-02-28T02:07:02;5.47;;;3.40;;
53010;SDS011;42803;55.762;38.084;2023-02-28T02:09:32;8.85;;;3.55;;
53010;SDS011;42803;55.762;38.084;2023-02-28T02:12:02;10.73;;;4.15;;
53010;SDS011;42803;55.762;38.084;2023-02-28T02:14:49;10.68;;;4.40;;
53010;SDS011;42803;55.762;38.084;2023-02-28T02:17:31;7.53;;;3.67;;
53010;SDS011;42803;55.762;38.084;2023-02-28T02:20:16;6.68;;;3.40;;
53010;SDS011;42803;55.762;38.084;2023-02-28T02:23:09;6.53;;;3.78;;
53010;SDS011;42803;55.762;38.084;2023-02-28T02:29:33;9.75;;;4.43;;
53010;SDS011;42803;55.762;38.084;2023-02-28T02:32:30;10.68;;;4.68;;
53010;SDS011;42803;55.762;38.084;2023-02-28T02:35:18;8.75;;;4.10;;
53010;SDS011;42803;55.762;38.084;2023-02-28T02:37:55;14.52;;;4.50;;
53010;SDS011;42803;55.762;38.084;2023-02-28T02:40:30;9.73;;;4.68;;
53010;SDS011;42803;55.762;38.084;2023-02-28T02:43:03;11.05;;;4.13;;
53010;SDS011;42803;55.762;38.084;2023-02-28T02:45:39;10.82;;;4.57;;
53010;SDS011;42803;55.762;38.084;2023-02-28T02:48:15;11.45;;;4.53;;
53010;SDS011;42803;55.762;38.084;2023-02-28T02:50:53;9.70;;;4.55;;
53010;SDS011;42803;55.762;38.084;2023-02-28T02:53:25;9.50;;;4.53;;
53010;SDS011;42803;55.762;38.084;2023-02-28T02:56:00;8.95;;;4.13;;
53010;SDS011;42803;55.762;38.084;2023-02-28T02:58:33;9.43;;;5.18;;
53010;SDS011;42803;55.762;38.084;2023-02-28T03:01:10;11.00;;;5.53;;
53010;SDS011;42803;55.762;38.084;2023-02-28T03:03:43;12.63;;;5.03;;
53010;SDS011;42803;55.762;38.084;2023-02-28T03:06:15;11.48;;;6.50;;
53010;SDS011;42803;55.762;38.084;2023-02-28T03:08:44;8.63;;;4.38;;
53010;SDS011;42803;55.762;38.084;2023-02-28T03:11:13;9.13;;;3.95;;
53010;SDS011;42803;55.762;38.084;2023-02-28T03:20:01;12.60;;;5.63;;
53010;SDS011;42803;55.762;38.084;2023-02-28T03:22:45;8.38;;;4.55;;
53010;SDS011;42803;55.762;38.084;2023-02-28T03:25:27;11.10;;;4.22;;
53010;SDS011;42803;55.762;38.084;2023-02-28T03:28:05;12.00;;;5.55;;
53010;SDS011;42803;55.762;38.084;2023-02-28T03:30:45;6.55;;;3.90;;
53010;SDS011;42803;55.762;38.084;2023-02-28T03:33:21;9.73;;;4.30;;
53010;SDS011;42803;55.762;38.084;2023-02-28T03:35:55;7.65;;;3.13;;
53010;SDS011;42803;55.762;38.084;2023-02-28T03:38:29;8.80;;;4.55;;
53010;SDS011;42803;55.762;38.084;2023-02-28T03:41:05;7.65;;;4.07;;
53010;SDS011;42803;55.762;38.084;2023-02-28T03:43:40;8.98;;;5.30;;
53010;SDS011;42803;55.762;38.084;2023-02-28T03:46:14;8.05;;;4.38;;
53010;SDS011;42803;55.762;38.084;2023-02-28T03:48:49;8.00;;;3.60;;
53010;SDS011;42803;55.762;38.084;2023-02-28T03:51:27;6.90;;;2.92;;
53010;SDS011;42803;55.762;38.084;2023-02-28T03:54:01;6.35;;;3.72;;
53010;SDS011;42803;55.762;38.084;2023-02-28T03:56:37;9.68;;;4.63;;
53010;SDS011;42803;55.762;38.084;2023-02-28T03:59:10;9.43;;;4.88;;
53010;SDS011;42803;55.762;38.084;2023-02-28T04:01:44;7.38;;;4.22;;
53010;SDS011;42803;55.762;38.084;2023-02-28T04:04:15;6.68;;;3.47;;
53010;SDS011;42803;55.762;38.084;2023-02-28T04:06:45;9.15;;;5.32;;
53010;SDS011;42803;55.762;38.084;2023-02-28T04:09:19;5.03;;;3.72;;
53010;SDS011;42803;55.762;38.084;2023-02-28T04:11:48;6.90;;;3.65;;
53010;SDS011;42803;55.762;38.084;2023-02-28T04:14:20;9.65;;;4.57;;
53010;SDS011;42803;55.762;38.084;2023-02-28T04:16:49;9.73;;;4.20;;
53010;SDS011;42803;55.762;38.084;2023-02-28T04:19:19;4.35;;;2.72;;
53010;SDS011;42803;55.762;38.084;2023-02-28T04:21:50;6.50;;;3.55;;
53010;SDS011;42803;55.762;38.084;2023-02-28T04:24:21;9.82;;;4.13;;
53010;SDS011;42803;55.762;38.084;2023-02-28T04:26:52;6.70;;;3.65;;
53010;SDS011;42803;55.762;38.084;2023-02-28T04:29:24;6.82;;;3.42;;
53010;SDS011;42803;55.762;38.084;2023-02-28T04:31:54;6.55;;;3.30;;
53010;SDS011;42803;55.762;38.084;2023-02-28T04:34:25;5.80;;;2.80;;
53010;SDS011;42803;55.762;38.084;2023-02-28T04:36:55;7.93;;;3.63;;
53010;SDS011;42803;55.762;38.084;2023-02-28T04:39:41;8.50;;;3.72;;
53010;SDS011;42803;55.762;38.084;2023-02-28T04:42:11;7.22;;;3.17;;
53010;SDS011;42803;55.762;38.084;2023-02-28T04:44:40;7.13;;;3.60;;
53010;SDS011;42803;55.762;38.084;2023-02-28T04:47:10;6.25;;;3.50;;
53010;SDS011;42803;55.762;38.084;2023-02-28T04:49:39;5.53;;;3.63;;
53010;SDS011;42803;55.762;38.084;2023-02-28T04:52:08;7.28;;;3.42;;
53010;SDS011;42803;55.762;38.084;2023-02-28T04:54:38;5.25;;;3.50;;
53010;SDS011;42803;55.762;38.084;2023-02-28T04:57:08;6.57;;;2.90;;
53010;SDS011;42803;55.762;38.084;2023-02-28T04:59:37;9.77;;;3.13;;
53010;SDS011;42803;55.762;38.084;2023-02-28T05:02:07;3.85;;;2.90;;
53010;SDS011;42803;55.762;38.084;2023-02-28T05:04:36;5.53;;;2.88;;
53010;SDS011;42803;55.762;38.084;2023-02-28T05:07:05;5.15;;;3.10;;
53010;SDS011;42803;55.762;38.084;2023-02-28T05:09:34;7.68;;;3.30;;
53010;SDS011;42803;55.762;38.084;2023-02-28T05:12:03;7.15;;;3.28;;
53010;SDS011;42803;55.762;38.084;2023-02-28T05:14:34;4.72;;;2.95;;
53010;SDS011;42803;55.762;38.084;2023-02-28T05:17:03;3.42;;;2.83;;
53010;SDS011;42803;55.762;38.084;2023-02-28T05:19:32;4.60;;;2.72;;
53010;SDS011;42803;55.762;38.084;2023-02-28T05:22:01;4.72;;;2.72;;
53010;SDS011;42803;55.762;38.084;2023-02-28T05:24:30;5.40;;;3.08;;
53010;SDS011;42803;55.762;38.084;2023-02-28T05:26:59;6.18;;;2.78;;
53010;SDS011;42803;55.762;38.084;2023-02-28T05:29:29;4.57;;;2.70;;
53010;SDS011;42803;55.762;38.084;2023-02-28T05:31:59;6.32;;;2.75;;
53010;SDS011;42803;55.762;38.084;2023-02-28T05:34:29;6.82;;;2.85;;
53010;SDS011;42803;55.762;38.084;2023-02-28T05:36:58;3.03;;;2.13;;
53010;SDS011;42803;55.762;38.084;2023-02-28T05:39:27;6.63;;;2.35;;
53010;SDS011;42803;55.762;38.084;2023-02-28T05:41:56;5.22;;;2.75;;
53010;SDS011;42803;55.762;38.084;2023-02-28T05:44:25;8.20;;;2.97;;
53010;SDS011;42803;55.762;38.084;2023-02-28T05:46:54;6.32;;;2.65;;
53010;SDS011;42803;55.762;38.084;2023-02-28T05:49:25;4.70;;;2.13;;
53010;SDS011;42803;55.762;38.084;2023-02-28T05:51:54;5.93;;;2.65;;
53010;SDS011;42803;55.762;38.084;2023-02-28T05:54:23;5.20;;;2.30;;
53010;SDS011;42803;55.762;38.084;2023-02-28T05:56:52;4.40;;;2.85;;
53010;SDS011;42803;55.762;38.084;2023-02-28T05:59:21;4.90;;;2.60;;
53010;SDS011;42803;55.762;38.084;2023-02-28T06:01:50;2.47;;;1.85;;
53010;SDS011;42803;55.762;38.084;2023-02-28T06:04:20;3.17;;;2.38;;
53010;SDS011;42803;55.762;38.084;2023-02-28T06:06:59;5.53;;;2.45;;
53010;SDS011;42803;55.762;38.084;2023-02-28T06:09:28;4.88;;;2.92;;
53010;SDS011;42803;55.762;38.084;2023-02-28T06:11:58;2.40;;;1.90;;
53010;SDS011;42803;55.762;38.084;2023-02-28T06:14:30;6.15;;;2.90;;
53010;SDS011;42803;55.762;38.084;2023-02-28T06:17:00;4.25;;;2.97;;
53010;SDS011;42803;55.762;38.084;2023-02-28T06:19:30;3.47;;;2.40;;
53010;SDS011;42803;55.762;38.084;2023-02-28T06:22:00;4.93;;;2.17;;
53010;SDS011;42803;55.762;38.084;2023-02-28T06:24:29;5.30;;;3.00;;
53010;SDS011;42803;55.762;38.084;2023-02-28T06:26:59;3.38;;;2.50;;
53010;SDS011;42803;55.762;38.084;2023-02-28T06:29:32;2.97;;;2.10;;
53010;SDS011;42803;55.762;38.084;2023-02-28T06:32:19;5.22;;;2.53;;
53010;SDS011;42803;55.762;38.084;2023-02-28T06:34:48;3.20;;;1.98;;
53010;SDS011;42803;55.762;38.084;2023-02-28T06:37:19;2.83;;;2.33;;
53010;SDS011;42803;55.762;38.084;2023-02-28T06:39:48;7.07;;;2.38;;
53010;SDS011;42803;55.762;38.084;2023-02-28T06:42:18;4.53;;;2.05;;
53010;SDS011;42803;55.762;38.084;2023-02-28T06:44:47;5.00;;;2.58;;
53010;SDS011;42803;55.762;38.084;2023-02-28T06:47:16;4.10;;;2.13;;
53010;SDS011;42803;55.762;38.084;2023-02-28T06:49:45;5.53;;;3.20;;
53010;SDS011;42803;55.762;38.084;2023-02-28T06:52:14;3.92;;;2.20;;
53010;SDS011;42803;55.762;38.084;2023-02-28T06:54:45;3.65;;;2.65;;
53010;SDS011;42803;55.762;38.084;2023-02-28T06:57:14;4.78;;;2.58;;
53010;SDS011;42803;55.762;38.084;2023-02-28T06:59:43;4.40;;;2.47;;
53010;SDS011;42803;55.762;38.084;2023-02-28T07:02:12;3.22;;;2.10;;
53010;SDS011;42803;55.762;38.084;2023-02-28T07:04:41;3.50;;;2.17;;
53010;SDS011;42803;55.762;38.084;2023-02-28T07:07:11;2.45;;;1.75;;
53010;SDS011;42803;55.762;38.084;2023-02-28T07:09:40;4.63;;;2.42;;
53010;SDS011;42803;55.762;38.084;2023-02-28T07:12:11;3.47;;;2.10;;
53010;SDS011;42803;55.762;38.084;2023-02-28T07:14:40;5.45;;;2.25;;
53010;SDS011;42803;55.762;38.084;2023-02-28T07:17:09;6.50;;;2.72;;
53010;SDS011;42803;55.762;38.084;2023-02-28T07:19:39;3.42;;;2.35;;
53010;SDS011;42803;55.762;38.084;2023-02-28T07:22:08;6.25;;;2.25;;
53010;SDS011;42803;55.762;38.084;2023-02-28T07:24:37;6.00;;;2.85;;
53010;SDS011;42803;55.762;38.084;2023-02-28T07:27:06;4.82;;;2.78;;
53010;SDS011;42803;55.762;38.084;2023-02-28T07:29:37;4.32;;;2.67;;
53010;SDS011;42803;55.762;38.084;2023-02-28T07:32:06;5.15;;;2.45;;
53010;SDS011;42803;55.762;38.084;2023-02-28T07:34:35;4.00;;;2.67;;
53010;SDS011;42803;55.762;38.084;2023-02-28T07:37:04;4.75;;;2.72;;
53010;SDS011;42803;55.762;38.084;2023-02-28T07:39:33;4.22;;;2.53;;
53010;SDS011;42803;55.762;38.084;2023-02-28T07:42:03;7.18;;;2.72;;
53010;SDS011;42803;55.762;38.084;2023-02-28T07:44:33;5.13;;;2.72;;
53010;SDS011;42803;55.762;38.084;2023-02-28T07:47:04;5.75;;;2.20;;
53010;SDS011;42803;55.762;38.084;2023-02-28T07:49:34;4.05;;;2.10;;
53010;SDS011;42803;55.762;38.084;2023-02-28T07:52:03;3.72;;;1.98;;
53010;SDS011;42803;55.762;38.084;2023-02-28T07:54:33;4.53;;;2.75;;
53010;SDS011;42803;55.762;38.084;2023-02-28T07:57:03;8.60;;;2.72;;
53010;SDS011;42803;55.762;38.084;2023-02-28T07:59:31;4.05;;;1.90;;
53010;SDS011;42803;55.762;38.084;2023-02-28T08:02:01;4.45;;;2.25;;
53010;SDS011;42803;55.762;38.084;2023-02-28T08:04:32;3.70;;;2.67;;
53010;SDS011;42803;55.762;38.084;2023-02-28T08:07:02;5.32;;;2.70;;
53010;SDS011;42803;55.762;38.084;2023-02-28T08:09:31;6.32;;;2.85;;
53010;SDS011;42803;55.762;38.084;2023-02-28T08:12:01;5.18;;;2.92;;
53010;SDS011;42803;55.762;38.084;2023-02-28T08:14:30;6.00;;;2.47;;
53010;SDS011;42803;55.762;38.084;2023-02-28T08:16:59;7.25;;;3.08;;
53010;SDS011;42803;55.762;38.084;2023-02-28T08:19:28;9.63;;;3.38;;
53010;SDS011;42803;55.762;38.084;2023-02-28T08:21:59;5.18;;;3.03;;
53010;SDS011;42803;55.762;38.084;2023-02-28T08:24:28;8.02;;;2.47;;
53010;SDS011;42803;55.762;38.084;2023-02-28T08:26:57;9.45;;;3.17;;
53010;SDS011;42803;55.762;38.084;2023-02-28T08:29:26;3.42;;;2.08;;
53010;SDS011;42803;55.762;38.084;2023-02-28T08:31:56;4.10;;;2.90;;
53010;SDS011;42803;55.762;38.084;2023-02-28T08:34:26;4.63;;;2.53;;
53010;SDS011;42803;55.762;38.084;2023-02-28T08:36:55;4.97;;;2.47;;
53010;SDS011;42803;55.762;38.084;2023-02-28T08:39:25;5.32;;;2.58;;
53010;SDS011;42803;55.762;38.084;2023-02-28T08:41:54;2.65;;;2.00;;
53010;SDS011;42803;55.762;38.084;2023-02-28T08:44:34;3.25;;;2.17;;
53010;SDS011;42803;55.762;38.084;2023-02-28T08:47:03;3.58;;;2.60;;
53010;SDS011;42803;55.762;38.084;2023-02-28T08:49:32;4.13;;;1.98;;
53010;SDS011;42803;55.762;38.084;2023-02-28T08:52:01;3.25;;;2.28;;
53010;SDS011;42803;55.762;38.084;2023-02-28T08:54:32;3.20;;;2.00;;
53010;SDS011;42803;55.762;38.084;2023-02-28T08:57:01;5.32;;;2.92;;
53010;SDS011;42803;55.762;38.084;2023-02-28T08:59:32;6.10;;;3.83;;
53010;SDS011;42803;55.762;38.084;2023-02-28T09:02:01;3.35;;;2.35;;
53010;SDS011;42803;55.762;38.084;2023-02-28T09:04:30;6.07;;;2.58;;
53010;SDS011;42803;55.762;38.084;2023-02-28T09:06:59;2.75;;;1.88;;
53010;SDS011;42803;55.762;38.084;2023-02-28T09:09:28;7.68;;;3.05;;
53010;SDS011;42803;55.762;38.084;2023-02-28T09:11:58;5.60;;;2.75;;
53010;SDS011;42803;55.762;38.084;2023-02-28T09:14:27;5.72;;;2.63;;
53010;SDS011;42803;55.762;38.084;2023-02-28T09:16:56;5.70;;;3.47;;
53010;SDS011;42803;55.762;38.084;2023-02-28T09:19:26;7.18;;;3.45;;
53010;SDS011;42803;55.762;38.084;2023-02-28T09:21:55;4.00;;;2.95;;
53010;SDS011;42803;55.762;38.084;2023-02-28T09:24:24;4.68;;;2.45;;
53010;SDS011;42803;55.762;38.084;2023-02-28T09:26:54;3.95;;;2.25;;
53010;SDS011;42803;55.762;38.084;2023-02-28T09:29:33;4.20;;;2.45;;
53010;SDS011;42803;55.762;38.084;2023-02-28T09:32:03;5.88;;;2.72;;
53010;SDS011;42803;55.762;38.084;2023-02-28T09:34:33;5.25;;;2.72;;
53010;SDS011;42803;55.762;38.084;2023-02-28T09:37:04;5.43;;;2.70;;
53010;SDS011;42803;55.762;38.084;2023-02-28T09:39:33;4.40;;;2.97;;
53010;SDS011;42803;55.762;38.084;2023-02-28T09:42:03;4.05;;;2.53;;
53010;SDS011;42803;55.762;38.084;2023-02-28T09:44:36;3.88;;;2.45;;
53010;SDS011;42803;55.762;38.084;2023-02-28T09:47:12;4.03;;;2.70;;
53010;SDS011;42803;55.762;38.084;2023-02-28T09:49:47;5.15;;;2.65;;
53010;SDS011;42803;55.762;38.084;2023-02-28T09:52:17;3.97;;;2.20;;
53010;SDS011;42803;55.762;38.084;2023-02-28T09:54:49;4.72;;;2.78;;
53010;SDS011;42803;55.762;38.084;2023-02-28T09:57:21;7.30;;;2.67;;
53010;SDS011;42803;55.762;38.084;2023-02-28T10:00:05;8.07;;;2.60;;
53010;SDS011;42803;55.762;38.084;2023-02-28T10:05:41;4.50;;;2.58;;
53010;SDS011;42803;55.762;38.084;2023-02-28T10:08:18;4.75;;;1.95;;
53010;SDS011;42803;55.762;38.084;2023-02-28T10:13:25;3.72;;;1.88;;
53010;SDS011;42803;55.762;38.084;2023-02-28T10:16:01;4.63;;;2.60;;
53010;SDS011;42803;55.762;38.084;2023-02-28T10:18:43;5.83;;;2.57;;
53010;SDS011;42803;55.762;38.084;2023-02-28T10:21:18;4.57;;;2.10;;
53010;SDS011;42803;55.762;38.084;2023-02-28T10:26:24;3.88;;;2.22;;
53010;SDS011;42803;55.762;38.084;2023-02-28T10:28:59;6.43;;;3.13;;
53010;SDS011;42803;55.762;38.084;2023-02-28T10:31:31;3.10;;;2.03;;
53010;SDS011;42803;55.762;38.084;2023-02-28T10:34:01;3.25;;;2.20;;
53010;SDS011;42803;55.762;38.084;2023-02-28T10:36:37;3.40;;;2.15;;
53010;SDS011;42803;55.762;38.084;2023-02-28T10:44:48;2.88;;;2.10;;
53010;SDS011;42803;55.762;38.084;2023-02-28T10:47:19;2.10;;;1.60;;
53010;SDS011;42803;55.762;38.084;2023-02-28T10:49:48;3.25;;;2.10;;
53010;SDS011;42803;55.762;38.084;2023-02-28T10:55:18;3.60;;;2.72;;
53010;SDS011;42803;55.762;38.084;2023-02-28T10:57:50;5.30;;;2.30;;
53010;SDS011;42803;55.762;38.084;2023-02-28T11:02:54;4.32;;;2.58;;
53010;SDS011;42803;55.762;38.084;2023-02-28T11:05:24;4.25;;;2.58;;
53010;SDS011;42803;55.762;38.084;2023-02-28T11:07:56;4.80;;;2.28;;
53010;SDS011;42803;55.762;38.084;2023-02-28T11:10:32;5.20;;;2.80;;
53010;SDS011;42803;55.762;38.084;2023-02-28T11:13:02;7.22;;;1.90;;
53010;SDS011;42803;55.762;38.084;2023-02-28T11:15:32;3.78;;;2.13;;
53010;SDS011;42803;55.762;38.084;2023-02-28T11:18:06;3.80;;;2.08;;
53010;SDS011;42803;55.762;38.084;2023-02-28T11:20:47;6.10;;;2.20;;
53010;SDS011;42803;55.762;38.084;2023-02-28T11:23:18;4.47;;;2.00;;
53010;SDS011;42803;55.762;38.084;2023-02-28T11:25:49;3.75;;;2.35;;
53010;SDS011;42803;55.762;38.084;2023-02-28T11:28:25;3.83;;;2.50;;
53010;SDS011;42803;55.762;38.084;2023-02-28T11:31:00;3.70;;;3.13;;
53010;SDS011;42803;55.762;38.084;2023-02-28T11:33:37;5.03;;;2.20;;
53010;SDS011;42803;55.762;38.084;2023-02-28T11:36:13;3.47;;;2.30;;
53010;SDS011;42803;55.762;38.084;2023-02-28T11:38:46;5.18;;;2.10;;
53010;SDS011;42803;55.762;38.084;2023-02-28T11:41:29;5.07;;;2.47;;
53010;SDS011;42803;55.762;38.084;2023-02-28T11:44:10;7.78;;;2.40;;
53010;SDS011;42803;55.762;38.084;2023-02-28T11:47:02;4.05;;;2.65;;
53010;SDS011;42803;55.762;38.084;2023-02-28T11:49:41;3.05;;;1.50;;
53010;SDS011;42803;55.762;38.084;2023-02-28T11:52:19;6.15;;;2.67;;
53010;SDS011;42803;55.762;38.084;2023-02-28T11:54:57;5.15;;;2.42;;
53010;SDS011;42803;55.762;38.084;2023-02-28T11:57:36;3.80;;;2.50;;
53010;SDS011;42803;55.762;38.084;2023-02-28T12:00:29;5.93;;;2.65;;
53010;SDS011;42803;55.762;38.084;2023-02-28T12:03:11;6.75;;;3.03;;
53010;SDS011;42803;55.762;38.084;2023-02-28T12:05:53;5.20;;;3.25;;
53010;SDS011;42803;55.762;38.084;2023-02-28T12:08:37;6.63;;;3.42;;
53010;SDS011;42803;55.762;38.084;2023-02-28T12:11:17;5.38;;;2.80;;
53010;SDS011;42803;55.762;38.084;2023-02-28T12:13:58;4.80;;;2.55;;
53010;SDS011;42803;55.762;38.084;2023-02-28T12:16:46;6.32;;;2.72;;
53010;SDS011;42803;55.762;38.084;2023-02-28T12:19:24;4.47;;;2.45;;
53010;SDS011;42803;55.762;38.084;2023-02-28T12:22:09;6.07;;;2.45;;
53010;SDS011;42803;55.762;38.084;2023-02-28T12:24:50;6.13;;;2.35;;
53010;SDS011;42803;55.762;38.084;2023-02-28T12:27:31;5.45;;;2.33;;
53010;SDS011;42803;55.762;38.084;2023-02-28T12:30:04;3.72;;;2.38;;
53010;SDS011;42803;55.762;38.084;2023-02-28T12:32:43;7.47;;;3.33;;
53010;SDS011;42803;55.762;38.084;2023-02-28T12:35:16;5.18;;;2.97;;
53010;SDS011;42803;55.762;38.084;2023-02-28T12:37:52;3.70;;;2.20;;
53010;SDS011;42803;55.762;38.084;2023-02-28T12:40:27;4.15;;;2.75;;
53010;SDS011;42803;55.762;38.084;2023-02-28T12:43:11;6.15;;;2.42;;
53010;SDS011;42803;55.762;38.084;2023-02-28T12:45:44;5.95;;;3.28;;
53010;SDS011;42803;55.762;38.084;2023-02-28T12:50:50;4.55;;;3.05;;
53010;SDS011;42803;55.762;38.084;2023-02-28T12:53:23;5.03;;;2.80;;
53010;SDS011;42803;55.762;38.084;2023-02-28T12:55:59;4.93;;;2.28;;
53010;SDS011;42803;55.762;38.084;2023-02-28T12:58:37;6.70;;;2.40;;
53010;SDS011;42803;55.762;38.084;2023-02-28T13:04:08;4.20;;;2.58;;
53010;SDS011;42803;55.762;38.084;2023-02-28T13:06:59;4.57;;;2.33;;
53010;SDS011;42803;55.762;38.084;2023-02-28T13:09:44;5.63;;;2.40;;
53010;SDS011;42803;55.762;38.084;2023-02-28T13:12:21;3.85;;;2.17;;
53010;SDS011;42803;55.762;38.084;2023-02-28T13:14:51;6.20;;;3.08;;
53010;SDS011;42803;55.762;38.084;2023-02-28T13:17:48;4.50;;;2.90;;
53010;SDS011;42803;55.762;38.084;2023-02-28T13:20:20;4.97;;;2.55;;
53010;SDS011;42803;55.762;38.084;2023-02-28T13:22:52;6.07;;;2.75;;
53010;SDS011;42803;55.762;38.084;2023-02-28T13:34:47;6.65;;;1.95;;
53010;SDS011;42803;55.762;38.084;2023-02-28T13:40:49;4.78;;;2.58;;
53010;SDS011;42803;55.762;38.084;2023-02-28T13:43:19;6.35;;;2.25;;
53010;SDS011;42803;55.762;38.084;2023-02-28T13:46:06;7.45;;;2.20;;
53010;SDS011;42803;55.762;38.084;2023-02-28T13:48:40;3.75;;;2.90;;
53010;SDS011;42803;55.762;38.084;2023-02-28T13:54:21;4.70;;;2.78;;
53010;SDS011;42803;55.762;38.084;2023-02-28T13:57:03;4.57;;;2.80;;
53010;SDS011;42803;55.762;38.084;2023-02-28T13:59:45;3.22;;;2.30;;
53010;SDS011;42803;55.762;38.084;2023-02-28T14:02:31;2.72;;;1.98;;
53010;SDS011;42803;55.762;38.084;2023-02-28T14:07:47;5.63;;;2.78;;
53010;SDS011;42803;55.762;38.084;2023-02-28T14:10:22;3.20;;;1.90;;
53010;SDS011;42803;55.762;38.084;2023-02-28T14:12:58;3.67;;;2.67;;
53010;SDS011;42803;55.762;38.084;2023-02-28T14:15:39;3.10;;;2.10;;
53010;SDS011;42803;55.762;38.084;2023-02-28T14:18:17;4.63;;;2.55;;
53010;SDS011;42803;55.762;38.084;2023-02-28T14:20:54;4.93;;;3.17;;
53010;SDS011;42803;55.762;38.084;2023-02-28T14:23:36;3.75;;;2.50;;
53010;SDS011;42803;55.762;38.084;2023-02-28T14:26:26;4.05;;;2.38;;
53010;SDS011;42803;55.762;38.084;2023-02-28T14:29:13;3.45;;;2.75;;
53010;SDS011;42803;55.762;38.084;2023-02-28T14:31:58;3.50;;;2.35;;
53010;SDS011;42803;55.762;38.084;2023-02-28T14:34:35;3.20;;;2.15;;
53010;SDS011;42803;55.762;38.084;2023-02-28T14:37:10;3.92;;;1.67;;
53010;SDS011;42803;55.762;38.084;2023-02-28T14:39:44;5.30;;;3.08;;
53010;SDS011;42803;55.762;38.084;2023-02-28T14:42:27;3.45;;;2.45;;
53010;SDS011;42803;55.762;38.084;2023-02-28T14:44:57;2.00;;;1.77;;
53010;SDS011;42803;55.762;38.084;2023-02-28T14:47:28;4.60;;;2.90;;
53010;SDS011;42803;55.762;38.084;2023-02-28T14:50:01;2.43;;;2.13;;
53010;SDS011;42803;55.762;38.084;2023-02-28T14:52:32;3.10;;;2.60;;
53010;SDS011;42803;55.762;38.084;2023-02-28T14:55:03;3.85;;;2.15;;
53010;SDS011;42803;55.762;38.084;2023-02-28T14:57:39;5.00;;;2.25;;
53010;SDS011;42803;55.762;38.084;2023-02-28T15:00:12;3.08;;;2.30;;
53010;SDS011;42803;55.762;38.084;2023-02-28T15:02:46;2.90;;;2.38;;
53010;SDS011;42803;55.762;38.084;2023-02-28T15:05:25;3.53;;;2.78;;
53010;SDS011;42803;55.762;38.084;2023-02-28T15:08:09;4.03;;;2.20;;
53010;SDS011;42803;55.762;38.084;2023-02-28T15:15:57;3.17;;;2.55;;
53010;SDS011;42803;55.762;38.084;2023-02-28T15:18:32;4.03;;;2.45;;
53010;SDS011;42803;55.762;38.084;2023-02-28T15:21:12;3.45;;;2.88;;
53010;SDS011;42803;55.762;38.084;2023-02-28T15:23:45;2.07;;;1.43;;
53010;SDS011;42803;55.762;38.084;2023-02-28T15:26:19;3.05;;;1.95;;
53010;SDS011;42803;55.762;38.084;2023-02-28T15:28:51;2.38;;;1.85;;
53010;SDS011;42803;55.762;38.084;2023-02-28T15:31:26;5.68;;;3.08;;
53010;SDS011;42803;55.762;38.084;2023-02-28T15:34:15;2.72;;;1.83;;
53010;SDS011;42803;55.762;38.084;2023-02-28T15:36:50;3.67;;;2.50;;
53010;SDS011;42803;55.762;38.084;2023-02-28T15:39:20;4.35;;;3.13;;
53010;SDS011;42803;55.762;38.084;2023-02-28T15:41:50;3.17;;;2.10;;
53010;SDS011;42803;55.762;38.084;2023-02-28T15:44:25;6.25;;;2.17;;
53010;SDS011;42803;55.762;38.084;2023-02-28T15:46:58;3.53;;;2.45;;
53010;SDS011;42803;55.762;38.084;2023-02-28T15:49:34;4.85;;;2.80;;
53010;SDS011;42803;55.762;38.084;2023-02-28T15:52:12;4.15;;;3.00;;
53010;SDS011;42803;55.762;38.084;2023-02-28T15:54:44;4.85;;;2.80;;
53010;SDS011;42803;55.762;38.084;2023-02-28T15:57:15;4.03;;;2.50;;
53010;SDS011;42803;55.762;38.084;2023-02-28T15:59:52;3.20;;;2.53;;
53010;SDS011;42803;55.762;38.084;2023-02-28T16:02:30;5.32;;;2.45;;
53010;SDS011;42803;55.762;38.084;2023-02-28T16:05:12;3.08;;;2.25;;
53010;SDS011;42803;55.762;38.084;2023-02-28T16:07:58;4.22;;;2.58;;